Time;durP1;ratioP1;P1;durP2;ratioP2;P2;SDS_P1;SDS_P2;PMS_P1;PMS_P2;Temp;Humidity;BMP_temperature;BMP_pressure;BME280_temperature;BME280_humidity;BME280_pressure;Samples;Min_cycle;Max_cycle;Signal;HPM_P1;HPM_P2
2024/03/17 00:01:38;;;;;;;6.60;5.10;;;25.30;99.90;;;;;;5054453;28;20040;-46
2024/03/17 00:04:04;;;;;;;7.40;4.85;;;25.40;99.90;;;;;;5054477;28;20025;-45
2024/03/17 00:06:30;;;;;;;8.45;5.38;;;25.30;99.90;;;;;;5036698;28;20041;-46
2024/03/17 00:08:56;;;;;;;5.93;4.55;;;25.30;99.90;;;;;;5054612;28;20021;-45
2024/03/17 00:11:22;;;;;;;6.75;5.05;;;25.30;99.90;;;;;;5054419;28;20384;-45
2024/03/17 00:13:48;;;;;;;7.40;4.97;;;25.30;99.90;;;;;;5054488;28;20532;-46
2024/03/17 00:16:17;;;;;;;6.25;5.32;;;25.30;99.90;;;;;;5036284;28;20076;-45
2024/03/17 00:18:42;;;;;;;7.03;5.18;;;25.30;99.90;;;;;;5054320;28;20347;-46
2024/03/17 00:21:08;;;;;;;7.15;5.28;;;25.30;99.90;;;;;;5054126;28;20082;-46
2024/03/17 00:23:34;;;;;;;7.03;5.20;;;25.30;99.90;;;;;;5054343;28;20064;-46
2024/03/17 00:26:00;;;;;;;6.45;5.47;;;25.30;99.90;;;;;;5054437;28;20025;-46
2024/03/17 00:28:26;;;;;;;7.03;5.38;;;25.30;99.90;;;;;;5054411;28;20078;-45
2024/03/17 00:30:51;;;;;;;8.07;5.40;;;25.20;99.90;;;;;;5054020;28;20037;-46
2024/03/17 00:33:19;;;;;;;7.55;5.22;;;25.20;99.90;;;;;;5054058;28;20017;-45
2024/03/17 00:35:45;;;;;;;6.05;5.18;;;25.20;99.90;;;;;;5036008;28;20124;-45
2024/03/17 00:38:11;;;;;;;8.55;6.10;;;25.20;99.90;;;;;;5054102;28;20096;-45
2024/03/17 00:40:44;;;;;;;8.32;5.82;;;25.20;99.90;;;;;;5053847;28;20021;-45
2024/03/17 00:43:11;;;;;;;6.70;5.05;;;25.20;99.90;;;;;;5053905;28;20021;-46
2024/03/17 00:45:37;;;;;;;9.13;6.00;;;25.20;99.90;;;;;;5053954;28;20020;-45
2024/03/17 00:48:06;;;;;;;8.88;5.80;;;25.20;99.90;;;;;;5053856;28;20021;-45
2024/03/17 00:50:32;;;;;;;8.52;6.32;;;25.20;99.90;;;;;;5053666;28;20099;-45
2024/03/17 00:52:57;;;;;;;8.63;5.55;;;25.20;99.90;;;;;;5053872;28;20163;-46
2024/03/17 00:55:23;;;;;;;8.05;5.28;;;25.10;99.90;;;;;;5035712;28;20131;-46
2024/03/17 00:57:49;;;;;;;7.45;5.32;;;25.20;99.90;;;;;;5035450;28;20123;-44
2024/03/17 01:00:15;;;;;;;7.28;5.22;;;25.10;99.90;;;;;;5053957;28;20024;-44
2024/03/17 01:02:41;;;;;;;7.90;5.22;;;25.10;99.90;;;;;;5053004;28;20456;-44
2024/03/17 01:05:07;;;;;;;8.43;5.53;;;25.10;99.90;;;;;;5053224;28;20055;-45
2024/03/17 01:07:34;;;;;;;7.70;5.57;;;25.10;99.90;;;;;;5053449;28;20488;-45
2024/03/17 01:10:00;;;;;;;7.43;5.70;;;25.10;99.90;;;;;;5053606;28;20107;-44
2024/03/17 01:12:26;;;;;;;8.50;5.70;;;25.10;99.90;;;;;;5053283;28;20598;-45
2024/03/17 01:14:52;;;;;;;8.52;6.22;;;25.10;99.90;;;;;;5053077;28;20497;-45
2024/03/17 01:17:21;;;;;;;6.90;5.43;;;25.10;99.90;;;;;;5053033;28;20049;-45
2024/03/17 01:19:47;;;;;;;8.48;5.78;;;25.10;99.90;;;;;;5035180;28;20017;-45
2024/03/17 01:22:13;;;;;;;7.97;6.07;;;25.10;99.90;;;;;;5053119;28;20024;-45
2024/03/17 01:24:42;;;;;;;8.38;6.18;;;25.10;99.90;;;;;;5053195;28;20476;-44
2024/03/17 01:27:14;;;;;;;7.95;5.82;;;25.10;99.90;;;;;;5053193;28;20108;-45
2024/03/17 01:29:40;;;;;;;8.43;6.10;;;25.00;99.90;;;;;;5053115;28;20017;-45
2024/03/17 01:32:05;;;;;;;6.93;5.78;;;25.00;99.90;;;;;;5053105;28;20036;-45
2024/03/17 01:34:31;;;;;;;8.55;5.78;;;25.00;99.90;;;;;;5052830;28;20064;-45
2024/03/17 01:36:57;;;;;;;7.53;5.90;;;25.00;99.90;;;;;;5052892;28;20024;-45
2024/03/17 01:39:23;;;;;;;7.97;6.07;;;25.00;99.90;;;;;;5052584;28;20028;-45
2024/03/17 01:41:49;;;;;;;8.48;6.20;;;25.00;99.90;;;;;;5052686;28;20017;-46
2024/03/17 01:44:29;;;;;;;9.40;6.72;;;25.00;99.90;;;;;;5034879;28;20025;-46
2024/03/17 01:46:56;;;;;;;8.35;6.30;;;25.00;99.90;;;;;;5034745;28;20025;-45
2024/03/17 01:49:24;;;;;;;9.38;6.20;;;25.00;99.90;;;;;;5052603;28;20116;-45
2024/03/17 01:51:51;;;;;;;7.75;6.07;;;25.00;99.90;;;;;;5052461;28;20140;-45
2024/03/17 01:54:17;;;;;;;7.38;5.63;;;25.00;99.90;;;;;;5050036;28;20043;-45
2024/03/17 01:56:43;;;;;;;8.60;6.50;;;25.00;99.90;;;;;;5051526;28;20029;-46
2024/03/17 01:59:10;;;;;;;8.30;6.40;;;25.00;99.90;;;;;;5050894;28;20029;-45
2024/03/17 02:01:39;;;;;;;7.38;5.53;;;24.90;99.90;;;;;;5053075;28;20462;-46
2024/03/17 02:04:06;;;;;;;8.30;6.55;;;24.90;99.90;;;;;;5052251;28;20451;-45
2024/03/17 02:06:32;;;;;;;8.10;6.13;;;24.90;99.90;;;;;;5052324;28;20017;-46
2024/03/17 02:08:59;;;;;;;8.88;6.57;;;24.90;99.90;;;;;;5052139;28;20033;-45
2024/03/17 02:11:26;;;;;;;7.30;6.18;;;24.90;99.90;;;;;;5052176;28;20036;-45
2024/03/17 02:13:53;;;;;;;8.30;6.63;;;24.90;99.90;;;;;;5052109;28;20040;-46
2024/03/17 02:16:20;;;;;;;7.82;6.25;;;24.90;99.90;;;;;;5051552;28;20039;-45
2024/03/17 02:18:46;;;;;;;9.85;7.07;;;24.90;99.90;;;;;;5052108;28;20025;-46
2024/03/17 02:21:13;;;;;;;9.25;6.30;;;24.80;99.90;;;;;;5052411;28;20048;-46
2024/03/17 02:23:38;;;;;;;8.38;6.35;;;24.80;99.90;;;;;;5051927;28;20017;-45
2024/03/17 02:26:04;;;;;;;8.13;6.60;;;24.80;99.90;;;;;;5052114;28;20047;-46
2024/03/17 02:28:41;;;;;;;9.40;7.13;;;24.80;99.90;;;;;;5034284;28;20456;-45
2024/03/17 02:31:09;;;;;;;8.20;6.85;;;24.80;99.90;;;;;;5051882;28;20029;-45
2024/03/17 02:33:35;;;;;;;8.30;6.90;;;24.80;99.90;;;;;;5051991;28;20069;-45
2024/03/17 02:36:03;;;;;;;9.18;7.15;;;24.80;99.90;;;;;;5051980;28;20032;-45
2024/03/17 02:41:15;;;;;;;8.68;7.10;;;24.70;99.90;;;;;;5052407;28;20086;-45
2024/03/17 02:43:40;;;;;;;9.80;7.00;;;24.70;99.90;;;;;;5052101;28;20021;-45
2024/03/17 02:46:07;;;;;;;8.07;6.25;;;24.70;99.90;;;;;;5051792;28;20032;-45
2024/03/17 02:48:33;;;;;;;8.15;6.55;;;24.70;99.90;;;;;;5051821;28;20481;-45
2024/03/17 02:50:59;;;;;;;10.18;7.15;;;24.70;99.90;;;;;;5051709;28;20045;-45
2024/03/17 02:53:25;;;;;;;8.48;6.68;;;24.70;99.90;;;;;;5051904;28;20120;-45
2024/03/17 02:55:51;;;;;;;9.43;6.65;;;24.70;99.90;;;;;;5033992;28;20091;-45
2024/03/17 02:58:16;;;;;;;8.65;6.45;;;24.70;99.90;;;;;;5051827;28;20027;-45
2024/03/17 03:00:42;;;;;;;9.02;6.25;;;24.70;99.90;;;;;;5052318;28;20021;-45
2024/03/17 03:03:08;;;;;;;7.68;6.30;;;24.70;99.90;;;;;;5051696;28;20421;-45
2024/03/17 03:05:34;;;;;;;7.38;6.30;;;24.70;99.90;;;;;;5051645;28;20075;-45
2024/03/17 03:07:59;;;;;;;8.52;6.35;;;24.70;99.90;;;;;;5051699;28;20100;-46
2024/03/17 03:10:25;;;;;;;6.78;6.07;;;24.60;99.90;;;;;;5051606;28;20075;-45
2024/03/17 03:12:51;;;;;;;7.78;6.13;;;24.60;99.90;;;;;;5033973;28;20112;-45
2024/03/17 03:15:18;;;;;;;7.75;6.10;;;24.60;99.90;;;;;;5051719;28;20025;-44
2024/03/17 03:17:44;;;;;;;7.78;6.07;;;24.60;99.90;;;;;;5051833;28;20079;-45
2024/03/17 03:20:10;;;;;;;9.25;6.50;;;24.60;99.90;;;;;;5051543;28;20056;-45
2024/03/17 03:22:35;;;;;;;7.38;6.18;;;24.60;99.90;;;;;;5051537;28;20376;-46
2024/03/17 03:25:02;;;;;;;8.15;6.45;;;24.60;99.90;;;;;;5047970;28;20075;-45
2024/03/17 03:27:28;;;;;;;7.88;6.43;;;24.50;99.90;;;;;;5037345;28;20017;-45
2024/03/17 03:29:56;;;;;;;7.57;6.13;;;24.60;99.90;;;;;;5033390;28;20398;-45
2024/03/17 03:32:21;;;;;;;7.00;5.78;;;24.50;99.90;;;;;;5033053;28;20469;-45
2024/03/17 03:34:47;;;;;;;8.05;5.97;;;24.50;99.90;;;;;;5035025;28;20021;-45
2024/03/17 03:37:13;;;;;;;7.55;6.30;;;24.50;99.90;;;;;;5035252;28;20026;-45
2024/03/17 03:39:39;;;;;;;7.95;6.28;;;24.50;99.90;;;;;;5034278;28;20022;-45
2024/03/17 03:42:05;;;;;;;7.70;5.82;;;24.50;99.90;;;;;;5034825;28;20026;-45
2024/03/17 03:44:30;;;;;;;6.95;5.82;;;24.50;99.90;;;;;;5035043;28;20025;-45
2024/03/17 03:46:58;;;;;;;7.80;6.07;;;24.50;99.90;;;;;;5034966;28;20045;-45
2024/03/17 03:49:25;;;;;;;7.30;5.80;;;24.50;99.90;;;;;;5034926;28;20114;-45
2024/03/17 03:51:51;;;;;;;7.65;5.75;;;24.50;99.90;;;;;;5033801;28;20041;-45
2024/03/17 03:54:16;;;;;;;6.65;5.60;;;24.50;99.90;;;;;;5039225;28;20081;-45
2024/03/17 03:56:42;;;;;;;7.13;6.13;;;24.50;99.90;;;;;;5036279;28;20064;-45
2024/03/17 03:59:08;;;;;;;6.47;5.60;;;24.50;99.90;;;;;;5035737;28;20123;-45
2024/03/17 04:01:34;;;;;;;7.78;6.18;;;24.40;99.90;;;;;;5053883;28;20025;-45
2024/03/17 04:04:00;;;;;;;7.03;5.65;;;24.40;99.90;;;;;;5054708;28;20021;-46
2024/03/17 04:06:26;;;;;;;7.00;5.78;;;24.40;99.90;;;;;;5054776;28;20021;-46
2024/03/17 04:08:52;;;;;;;6.43;4.93;;;24.40;99.90;;;;;;5053716;28;20124;-46
2024/03/17 04:11:17;;;;;;;7.50;5.80;;;24.40;99.90;;;;;;5054787;28;20548;-46
2024/03/17 04:13:43;;;;;;;7.80;5.32;;;24.40;99.90;;;;;;5054368;28;20013;-46
2024/03/17 04:16:10;;;;;;;7.30;5.35;;;24.40;99.90;;;;;;5054380;28;20055;-45
2024/03/17 04:18:37;;;;;;;6.15;5.28;;;24.40;99.90;;;;;;5054449;28;20468;-46
2024/03/17 04:21:07;;;;;;;7.30;5.63;;;24.40;99.90;;;;;;5054431;28;20036;-45
2024/03/17 04:23:33;;;;;;;6.10;5.32;;;24.30;99.90;;;;;;5054337;28;20362;-44
2024/03/17 04:25:59;;;;;;;7.90;5.50;;;24.30;99.90;;;;;;5054315;28;20021;-45
2024/03/17 04:28:25;;;;;;;7.40;4.97;;;24.30;99.90;;;;;;5054203;28;20025;-46
2024/03/17 04:30:51;;;;;;;5.90;4.95;;;24.30;99.90;;;;;;5054313;28;20131;-45
2024/03/17 04:33:17;;;;;;;6.38;5.18;;;24.30;99.90;;;;;;5054267;28;20028;-45
2024/03/17 04:35:43;;;;;;;5.90;4.97;;;24.30;99.90;;;;;;5054190;28;20029;-46
2024/03/17 04:38:09;;;;;;;6.85;4.97;;;24.30;99.90;;;;;;5053393;28;20021;-45
2024/03/17 04:40:40;;;;;;;6.03;4.65;;;24.30;99.90;;;;;;5054065;28;20033;-45
2024/03/17 04:43:06;;;;;;;6.30;4.95;;;24.30;99.90;;;;;;5054047;28;20029;-45
2024/03/17 04:45:32;;;;;;;6.72;5.18;;;24.20;99.90;;;;;;5053986;28;20109;-45
2024/03/17 04:47:58;;;;;;;6.57;4.90;;;24.30;99.90;;;;;;5054002;28;20082;-46
2024/03/17 04:50:23;;;;;;;6.28;4.97;;;24.20;99.90;;;;;;5053965;28;20025;-45
2024/03/17 04:52:50;;;;;;;7.25;5.00;;;24.20;99.90;;;;;;5043900;28;20108;-46
2024/03/17 04:55:19;;;;;;;6.53;4.70;;;24.20;99.90;;;;;;5033617;28;20104;-46
2024/03/17 04:57:45;;;;;;;5.50;4.43;;;24.20;99.90;;;;;;5032131;28;20040;-45
2024/03/17 05:00:13;;;;;;;5.72;4.82;;;24.20;99.90;;;;;;5032726;28;20060;-46
2024/03/17 05:02:40;;;;;;;6.00;4.82;;;24.20;99.90;;;;;;5034050;28;20064;-45
2024/03/17 05:05:08;;;;;;;7.35;5.30;;;24.20;99.90;;;;;;5015861;28;20108;-45
2024/03/17 05:07:34;;;;;;;6.28;5.18;;;24.20;99.90;;;;;;5015790;28;20029;-45
2024/03/17 05:10:00;;;;;;;5.50;4.75;;;24.20;99.90;;;;;;5032404;28;20021;-45
2024/03/17 05:12:26;;;;;;;5.38;4.60;;;24.20;99.90;;;;;;5033345;28;20021;-44
2024/03/17 05:14:52;;;;;;;6.80;5.32;;;24.20;99.90;;;;;;5033520;28;20527;-45
2024/03/17 05:17:18;;;;;;;6.25;5.07;;;24.20;99.90;;;;;;5033097;28;20093;-45
2024/03/17 05:19:43;;;;;;;6.30;4.90;;;24.20;99.90;;;;;;5015722;28;20533;-45
2024/03/17 05:22:10;;;;;;;6.82;5.10;;;24.20;99.90;;;;;;5033094;28;20099;-45
2024/03/17 05:24:36;;;;;;;6.18;4.90;;;24.10;99.90;;;;;;5015310;28;20394;-45
2024/03/17 05:27:02;;;;;;;6.22;5.10;;;24.10;99.90;;;;;;5015612;28;20087;-44
2024/03/17 05:29:28;;;;;;;5.90;5.00;;;24.10;99.90;;;;;;5033198;28;20026;-45
2024/03/17 05:31:53;;;;;;;5.60;4.22;;;24.10;99.90;;;;;;5033346;28;20049;-45
2024/03/17 05:34:19;;;;;;;5.78;4.72;;;24.10;99.90;;;;;;5032810;28;20108;-45
2024/03/17 05:36:46;;;;;;;5.88;4.70;;;24.10;99.90;;;;;;5015375;28;20130;-45
2024/03/17 05:39:13;;;;;;;6.20;4.82;;;24.10;99.90;;;;;;5015566;28;20021;-44
2024/03/17 05:41:39;;;;;;;7.20;5.13;;;24.10;99.90;;;;;;5032933;28;20446;-45
2024/03/17 05:44:05;;;;;;;5.30;4.65;;;24.10;99.90;;;;;;5032803;28;20036;-45
2024/03/17 05:46:31;;;;;;;5.50;4.45;;;24.10;99.90;;;;;;5031398;28;20021;-45
2024/03/17 05:48:57;;;;;;;5.10;4.22;;;24.10;99.90;;;;;;5032937;28;20035;-45
2024/03/17 05:51:25;;;;;;;5.15;4.07;;;24.10;99.90;;;;;;5032776;28;20537;-46
2024/03/17 05:53:51;;;;;;;5.07;3.75;;;24.10;99.90;;;;;;5032654;28;20500;-43
2024/03/17 05:56:17;;;;;;;6.80;4.47;;;24.10;99.90;;;;;;5032754;28;20026;-46
2024/03/17 05:58:43;;;;;;;5.90;4.82;;;24.00;99.90;;;;;;5032670;28;20548;-45
2024/03/17 06:01:11;;;;;;;5.60;4.07;;;24.00;99.90;;;;;;5032776;28;20029;-46
2024/03/17 06:03:37;;;;;;;5.63;4.53;;;24.10;99.90;;;;;;5032819;28;20365;-45
2024/03/17 06:06:04;;;;;;;7.60;4.50;;;24.00;99.90;;;;;;5032531;28;20054;-44
2024/03/17 06:08:30;;;;;;;6.85;4.63;;;24.00;99.90;;;;;;5032522;28;20524;-45
2024/03/17 06:11:00;;;;;;;5.00;4.22;;;24.00;99.90;;;;;;5032651;28;20041;-45
2024/03/17 06:13:26;;;;;;;5.88;4.35;;;24.00;99.90;;;;;;5032705;28;20045;-45
2024/03/17 06:15:52;;;;;;;6.15;4.68;;;24.00;99.90;;;;;;5032108;28;20026;-44
2024/03/17 06:18:18;;;;;;;5.57;4.35;;;24.00;99.90;;;;;;5032473;28;20029;-45
2024/03/17 06:20:45;;;;;;;6.15;4.72;;;24.00;99.90;;;;;;5032328;28;20095;-45
2024/03/17 06:23:12;;;;;;;6.15;4.55;;;24.00;99.90;;;;;;5014817;28;20049;-45
2024/03/17 06:25:42;;;;;;;5.88;4.40;;;24.00;99.90;;;;;;5032325;28;20096;-45
2024/03/17 06:28:10;;;;;;;5.80;4.15;;;24.00;99.90;;;;;;5014591;28;20028;-45
2024/03/17 06:30:36;;;;;;;4.57;3.83;;;24.00;99.90;;;;;;5014881;28;20173;-45
2024/03/17 06:33:02;;;;;;;5.70;4.47;;;24.00;99.90;;;;;;5032071;28;20026;-45
2024/03/17 06:35:30;;;;;;;4.85;4.07;;;24.00;99.90;;;;;;5030910;28;20026;-45
2024/03/17 06:38:00;;;;;;;5.40;4.35;;;23.90;99.90;;;;;;5032341;28;20033;-45
2024/03/17 06:40:26;;;;;;;5.50;4.35;;;23.90;99.90;;;;;;5032219;28;20033;-45
2024/03/17 06:42:53;;;;;;;5.20;4.28;;;23.90;99.90;;;;;;5031773;28;20029;-45
2024/03/17 06:45:22;;;;;;;5.45;4.65;;;23.90;99.90;;;;;;5044450;28;20036;-45
2024/03/17 06:47:48;;;;;;;5.80;4.13;;;23.90;99.90;;;;;;5040876;28;20454;-45
2024/03/17 06:50:14;;;;;;;5.25;3.92;;;23.90;99.90;;;;;;5039891;28;20032;-45
2024/03/17 06:52:40;;;;;;;5.40;4.40;;;23.90;99.90;;;;;;5038987;28;20025;-45
2024/03/17 06:55:07;;;;;;;4.97;4.00;;;23.90;99.90;;;;;;5038220;28;20021;-45
2024/03/17 06:57:36;;;;;;;4.90;4.15;;;23.90;99.90;;;;;;5050797;28;20508;-45
2024/03/17 07:00:05;;;;;;;5.80;3.92;;;23.90;99.90;;;;;;5031906;28;20553;-45
2024/03/17 07:02:35;;;;;;;5.03;3.83;;;23.90;99.90;;;;;;5053177;28;20720;-45
2024/03/17 07:05:02;;;;;;;5.68;4.38;;;23.90;99.90;;;;;;5053783;28;20021;-45
2024/03/17 07:07:28;;;;;;;5.10;4.22;;;23.90;99.90;;;;;;5036112;28;20451;-46
2024/03/17 07:09:54;;;;;;;6.50;5.13;;;23.90;99.90;;;;;;5051998;28;20017;-44
2024/03/17 07:12:20;;;;;;;5.78;4.47;;;23.90;99.90;;;;;;5043523;28;20388;-45
2024/03/17 07:14:46;;;;;;;6.30;4.45;;;23.90;99.90;;;;;;5041929;28;20025;-46
2024/03/17 07:17:11;;;;;;;7.70;4.45;;;23.90;99.90;;;;;;5045183;28;20073;-46
2024/03/17 07:19:37;;;;;;;6.22;5.03;;;23.90;99.90;;;;;;5027427;28;20032;-46
2024/03/17 07:22:06;;;;;;;6.85;5.10;;;23.90;99.90;;;;;;5044980;28;20044;-46
2024/03/17 07:24:33;;;;;;;5.93;4.55;;;24.00;99.90;;;;;;5021024;28;20038;-46
2024/03/17 07:26:59;;;;;;;6.00;4.78;;;23.90;99.90;;;;;;5035309;28;20385;-46
2024/03/17 07:29:24;;;;;;;6.40;4.25;;;23.90;99.90;;;;;;5017519;28;20034;-46
2024/03/17 07:31:50;;;;;;;6.50;4.47;;;23.90;99.90;;;;;;5035169;28;20033;-46
2024/03/17 07:34:16;;;;;;;7.43;5.03;;;23.90;99.90;;;;;;5035471;28;20355;-46
2024/03/17 07:36:42;;;;;;;5.55;4.72;;;23.90;99.90;;;;;;5035245;28;20159;-46
2024/03/17 07:39:08;;;;;;;7.40;5.00;;;24.00;99.90;;;;;;5035292;28;20021;-46
2024/03/17 07:41:34;;;;;;;6.72;5.03;;;24.00;99.90;;;;;;5035352;28;20433;-46
2024/03/17 07:43:59;;;;;;;6.90;4.70;;;24.00;99.90;;;;;;5035212;28;20053;-45
2024/03/17 07:46:25;;;;;;;5.88;4.63;;;24.00;99.90;;;;;;5035108;28;20084;-45
2024/03/17 07:48:51;;;;;;;6.72;5.00;;;24.00;99.90;;;;;;5035001;28;20452;-46
2024/03/17 07:51:17;;;;;;;6.03;4.45;;;24.00;99.90;;;;;;5035008;28;20033;-45
2024/03/17 07:53:47;;;;;;;6.40;4.80;;;24.00;99.90;;;;;;5034871;28;20022;-46
2024/03/17 07:56:15;;;;;;;6.85;4.68;;;24.00;99.90;;;;;;5034925;28;20108;-45
2024/03/17 07:58:42;;;;;;;5.75;4.35;;;24.00;99.90;;;;;;5034961;28;20017;-46
2024/03/17 08:01:09;;;;;;;6.40;4.57;;;24.00;99.90;;;;;;5034909;28;20415;-45
2024/03/17 08:03:37;;;;;;;5.55;4.57;;;24.00;99.90;;;;;;5035011;28;20024;-45
2024/03/17 08:06:05;;;;;;;8.20;5.38;;;24.00;99.90;;;;;;5034889;28;20037;-46
2024/03/17 08:08:31;;;;;;;6.28;5.13;;;24.00;99.90;;;;;;5034904;28;20028;-45
2024/03/17 08:10:58;;;;;;;5.65;4.65;;;24.00;99.90;;;;;;5016812;28;20052;-45
2024/03/17 08:13:23;;;;;;;5.50;4.60;;;24.00;99.90;;;;;;5033449;28;20034;-45
2024/03/17 08:15:57;;;;;;;6.80;4.93;;;24.00;99.90;;;;;;5034553;28;20052;-44
2024/03/17 08:18:23;;;;;;;6.70;4.70;;;24.00;99.90;;;;;;5034491;28;20045;-45
2024/03/17 08:20:49;;;;;;;5.50;3.97;;;24.00;99.90;;;;;;5034352;28;20042;-45
2024/03/17 08:23:15;;;;;;;5.00;4.22;;;24.00;99.90;;;;;;5034478;28;20029;-44
2024/03/17 08:25:40;;;;;;;6.18;4.55;;;24.00;99.90;;;;;;5034293;28;20029;-44
2024/03/17 08:28:07;;;;;;;6.30;4.72;;;24.00;99.90;;;;;;5034625;28;20021;-44
2024/03/17 08:30:33;;;;;;;6.30;4.57;;;24.00;99.90;;;;;;5034554;28;20032;-45
2024/03/17 08:32:59;;;;;;;6.57;3.85;;;24.00;99.90;;;;;;5034090;28;20040;-44
2024/03/17 08:35:26;;;;;;;6.95;4.53;;;24.10;99.90;;;;;;5033961;28;20029;-45
2024/03/17 08:37:54;;;;;;;6.07;4.75;;;24.10;99.90;;;;;;5016163;28;20555;-45
2024/03/17 08:40:20;;;;;;;7.30;4.68;;;24.10;99.90;;;;;;5033879;28;20037;-45
2024/03/17 08:42:46;;;;;;;6.97;5.20;;;24.10;99.90;;;;;;5033873;28;20064;-45
2024/03/17 08:45:16;;;;;;;5.78;3.67;;;24.10;99.90;;;;;;5033907;28;20052;-45
2024/03/17 08:47:42;;;;;;;5.28;4.72;;;24.10;99.90;;;;;;5015968;28;20032;-45
2024/03/17 08:50:08;;;;;;;5.45;3.53;;;24.10;99.90;;;;;;5034247;28;20022;-44
2024/03/17 08:52:35;;;;;;;5.03;3.70;;;24.00;99.90;;;;;;5033906;28;20036;-45
2024/03/17 08:55:03;;;;;;;6.85;4.47;;;24.10;99.90;;;;;;5033434;28;20091;-44
2024/03/17 08:57:29;;;;;;;6.70;4.28;;;24.10;99.90;;;;;;5033629;28;20053;-45
2024/03/17 08:59:55;;;;;;;6.25;4.78;;;24.10;99.90;;;;;;5033667;28;20512;-45
2024/03/17 09:02:21;;;;;;;5.00;4.07;;;24.10;99.90;;;;;;5033574;28;20092;-44
2024/03/17 09:04:47;;;;;;;5.80;4.60;;;24.10;99.90;;;;;;5033469;28;20037;-45
2024/03/17 09:07:15;;;;;;;7.30;4.57;;;24.10;99.90;;;;;;5033603;28;20080;-45
2024/03/17 09:09:42;;;;;;;6.47;4.43;;;24.10;99.90;;;;;;5033476;28;20026;-45
2024/03/17 09:12:09;;;;;;;5.10;4.18;;;24.10;99.90;;;;;;5033456;28;20041;-45
2024/03/17 09:14:35;;;;;;;5.90;4.55;;;24.10;99.90;;;;;;5033671;28;20105;-45
2024/03/17 09:17:01;;;;;;;7.00;4.68;;;24.10;99.90;;;;;;5033174;28;20048;-44
2024/03/17 09:19:29;;;;;;;5.28;4.20;;;24.10;99.90;;;;;;5033414;28;20029;-45
2024/03/17 09:21:55;;;;;;;4.93;4.20;;;24.10;99.90;;;;;;5033128;28;20022;-45
2024/03/17 09:24:21;;;;;;;6.13;4.20;;;24.20;99.90;;;;;;5032964;28;20022;-46
2024/03/17 09:26:47;;;;;;;6.10;4.35;;;24.20;99.90;;;;;;5015404;28;20068;-46
2024/03/17 09:29:15;;;;;;;8.35;4.38;;;24.10;99.90;;;;;;5033031;28;20569;-46
2024/03/17 09:31:41;;;;;;;7.18;4.60;;;24.20;99.90;;;;;;5033155;28;20076;-45
2024/03/17 09:34:08;;;;;;;6.80;4.93;;;24.20;99.90;;;;;;5033081;28;20025;-45
2024/03/17 09:36:35;;;;;;;6.35;4.85;;;24.20;99.90;;;;;;5032864;28;20025;-45
2024/03/17 09:39:03;;;;;;;6.05;4.63;;;24.20;99.90;;;;;;5015145;28;20025;-45
2024/03/17 09:41:32;;;;;;;5.32;4.35;;;24.20;99.90;;;;;;5032924;28;20021;-45
2024/03/17 09:43:58;;;;;;;6.22;4.00;;;24.20;99.90;;;;;;5032956;28;20026;-45
2024/03/17 09:46:27;;;;;;;5.35;4.05;;;24.20;99.90;;;;;;5015060;28;20025;-45
2024/03/17 09:48:53;;;;;;;6.72;4.68;;;24.20;99.90;;;;;;5032666;28;20473;-46
2024/03/17 09:51:23;;;;;;;5.15;4.20;;;24.30;99.90;;;;;;5032466;28;20405;-46
2024/03/17 09:53:50;;;;;;;5.75;4.78;;;24.30;99.90;;;;;;5032534;28;20104;-46
2024/03/17 09:56:21;;;;;;;7.45;4.63;;;24.30;99.90;;;;;;5032432;28;20025;-46
2024/03/17 09:58:51;;;;;;;4.57;3.78;;;24.30;99.90;;;;;;5032495;28;20083;-45
2024/03/17 10:01:18;;;;;;;8.10;3.97;;;24.40;99.90;;;;;;5036199;28;20021;-46
2024/03/17 10:03:45;;;;;;;5.22;3.80;;;24.40;99.90;;;;;;5036096;28;20382;-46
2024/03/17 10:06:12;;;;;;;5.80;4.13;;;24.40;99.90;;;;;;5040831;28;20040;-46
2024/03/17 10:08:46;;;;;;;7.50;4.00;;;24.40;99.90;;;;;;5052119;28;20082;-45
2024/03/17 10:11:13;;;;;;;7.07;4.15;;;24.50;99.90;;;;;;5034073;28;20493;-46
2024/03/17 10:13:39;;;;;;;5.95;4.03;;;24.50;99.90;;;;;;5052031;28;20028;-46
2024/03/17 10:16:05;;;;;;;6.70;4.05;;;24.50;99.90;;;;;;5051496;28;20021;-45
2024/03/17 10:18:31;;;;;;;5.45;3.95;;;24.50;99.90;;;;;;5017423;28;20500;-45
2024/03/17 10:20:58;;;;;;;6.43;4.95;;;24.50;99.90;;;;;;5051938;28;20112;-46
2024/03/17 10:23:25;;;;;;;5.35;4.03;;;24.50;99.90;;;;;;5051739;28;20159;-46
2024/03/17 10:25:50;;;;;;;5.10;3.75;;;24.60;99.90;;;;;;5051638;28;20028;-44
2024/03/17 10:28:20;;;;;;;7.85;4.40;;;24.60;99.90;;;;;;5050908;28;20234;-46
2024/03/17 10:31:07;;;;;;;4.93;4.25;;;24.60;99.90;;;;;;5049708;28;20044;-45
2024/03/17 10:33:33;;;;;;;5.95;4.22;;;24.60;99.90;;;;;;5049961;28;20017;-44
2024/03/17 10:36:05;;;;;;;7.55;4.00;;;24.60;99.90;;;;;;5050833;28;20029;-46
2024/03/17 10:38:31;;;;;;;7.15;4.25;;;24.70;99.90;;;;;;5034038;28;20032;-46
2024/03/17 10:40:57;;;;;;;5.90;4.35;;;24.70;99.90;;;;;;5051732;28;20037;-46
2024/03/17 10:43:25;;;;;;;7.43;4.63;;;24.70;99.90;;;;;;5033847;28;20389;-46
2024/03/17 10:45:54;;;;;;;6.38;4.53;;;24.70;99.90;;;;;;5051913;28;20025;-45
2024/03/17 10:48:22;;;;;;;6.65;4.43;;;24.70;99.90;;;;;;5051860;28;20021;-46
2024/03/17 10:50:50;;;;;;;10.23;5.47;;;24.70;99.90;;;;;;5051779;28;20071;-46
2024/03/17 10:53:25;;;;;;;;;;;24.80;99.90;;;;;;5052265;28;20108;-45
2024/03/17 10:56:05;;;;;;;8.60;4.88;;;24.80;99.90;;;;;;5051720;28;19909;-45
2024/03/17 10:58:40;;;;;;;9.68;5.57;;;24.80;99.90;;;;;;5051777;28;20022;-46
2024/03/17 11:01:07;;;;;;;6.43;4.45;;;24.80;99.90;;;;;;5051837;28;20435;-45
2024/03/17 11:03:35;;;;;;;6.63;4.70;;;24.90;99.90;;;;;;5051635;28;20021;-45
2024/03/17 11:06:05;;;;;;;7.75;5.40;;;24.90;99.90;;;;;;5051490;28;20040;-45
2024/03/17 11:08:33;;;;;;;6.03;4.60;;;24.90;99.90;;;;;;5051621;28;20108;-45
2024/03/17 11:11:00;;;;;;;5.63;4.78;;;24.90;99.90;;;;;;5051576;28;20037;-47
2024/03/17 11:13:28;;;;;;;6.47;4.90;;;24.90;99.90;;;;;;5051740;28;20040;-46
2024/03/17 11:15:58;;;;;;;5.95;5.10;;;25.00;99.90;;;;;;5033620;28;20060;-46
2024/03/17 11:18:24;;;;;;;6.68;5.22;;;25.00;99.90;;;;;;5051600;28;20067;-46
2024/03/17 11:20:56;;;;;;;7.32;5.03;;;25.00;99.90;;;;;;5033729;28;20136;-46
2024/03/17 11:23:30;;;;;;;7.93;5.40;;;25.00;99.90;;;;;;5051659;28;20032;-47
2024/03/17 11:25:57;;;;;;;7.72;5.38;;;25.00;99.90;;;;;;5033585;28;20053;-46
2024/03/17 11:28:41;;;;;;;5.68;5.00;;;25.10;99.90;;;;;;5051569;28;20021;-46
2024/03/17 11:31:42;;;;;;;7.55;5.22;;;25.10;99.90;;;;;;5051426;28;20037;-46
2024/03/17 11:34:29;;;;;;;6.47;4.88;;;25.10;99.90;;;;;;5051366;28;20108;-46
2024/03/17 11:36:56;;;;;;;7.78;5.07;;;25.10;99.90;;;;;;5051574;28;20021;-46
2024/03/17 11:39:55;;;;;;;7.03;5.05;;;25.10;99.90;;;;;;5033579;28;20152;-46
2024/03/17 11:42:22;;;;;;;5.72;4.60;;;25.10;99.90;;;;;;5033465;28;20025;-46
2024/03/17 11:45:03;;;;;;;6.90;5.07;;;25.20;99.90;;;;;;5051564;28;20025;-45
2024/03/17 11:47:40;;;;;;;7.05;5.55;;;25.20;99.90;;;;;;5052725;28;20426;-46
2024/03/17 11:50:11;;;;;;;9.13;5.35;;;25.20;99.90;;;;;;5054762;28;20017;-46
2024/03/17 11:52:38;;;;;;;9.18;5.65;;;25.20;99.90;;;;;;5054934;28;20086;-46
2024/03/17 11:55:04;;;;;;;6.15;5.20;;;25.20;99.90;;;;;;5054785;28;20028;-45
2024/03/17 11:57:30;;;;;;;6.97;5.53;;;25.30;99.90;;;;;;5054953;28;20115;-46
2024/03/17 11:59:57;;;;;;;6.20;4.90;;;25.30;99.90;;;;;;5054810;28;20075;-46
2024/03/17 12:02:32;;;;;;;9.20;5.25;;;25.30;99.90;;;;;;5054548;28;20087;-45
2024/03/17 12:05:00;;;;;;;7.00;5.10;;;25.30;99.90;;;;;;5054454;28;20032;-45
2024/03/17 12:07:27;;;;;;;7.40;5.88;;;25.40;99.90;;;;;;5054651;28;20021;-45
2024/03/17 12:09:55;;;;;;;8.95;5.78;;;25.40;99.90;;;;;;5050574;28;20490;-45
2024/03/17 12:12:24;;;;;;;8.10;5.28;;;25.40;99.90;;;;;;5044094;28;20033;-46
2024/03/17 12:14:51;;;;;;;7.82;5.63;;;25.40;99.90;;;;;;5045104;28;20016;-45
2024/03/17 12:17:24;;;;;;;11.80;5.70;;;25.40;99.90;;;;;;5045596;28;20037;-45
2024/03/17 12:19:51;;;;;;;10.70;5.95;;;25.40;99.90;;;;;;5054557;28;20029;-44
2024/03/17 12:22:21;;;;;;;7.67;5.33;;;25.40;99.90;;;;;;5036419;28;20017;-44
2024/03/17 12:24:53;;;;;;;8.63;5.43;;;25.50;99.90;;;;;;5054371;28;20017;-46
2024/03/17 12:27:22;;;;;;;10.40;5.68;;;25.50;99.90;;;;;;5054410;28;20048;-45
2024/03/17 12:29:52;;;;;;;10.98;5.10;;;25.50;99.90;;;;;;5043263;28;20026;-44
2024/03/17 12:32:25;;;;;;;7.05;3.53;;;25.50;99.90;;;;;;5034370;28;20030;-45
2024/03/17 12:34:57;;;;;;;8.45;3.10;;;25.50;99.90;;;;;;5034357;28;20163;-45
2024/03/17 12:37:36;;;;;;;3.47;2.47;;;25.60;99.90;;;;;;5034259;28;20100;-44
2024/03/17 12:40:03;;;;;;;11.07;3.38;;;25.60;99.90;;;;;;5041779;28;20017;-46
2024/03/17 12:42:31;;;;;;;4.55;2.50;;;25.60;99.90;;;;;;5050219;28;20027;-44
2024/03/17 12:45:01;;;;;;;5.38;3.25;;;25.60;99.90;;;;;;5033825;28;20021;-45
2024/03/17 12:47:31;;;;;;;7.47;3.90;;;25.60;99.90;;;;;;5053664;28;20496;-45
2024/03/17 12:49:59;;;;;;;7.25;3.38;;;25.70;99.90;;;;;;5044501;28;20029;-44
2024/03/17 12:52:29;;;;;;;6.78;3.20;;;25.70;99.90;;;;;;5043428;28;20489;-46